La Rinconada, Spain
Current Conditions -  °F | °C
As of 10:30 PM on Friday 24 Oct 2014 (Local Time) from LEZL Reporting Station
Clear Clear  
Wind Chill: 70°   Ceiling: Unl
Heat Index: 70°   Visibility: 6mi
Dew Point: 52°   Wind: 3mph
Humidity: 53%   Direction: 30°NNE
Pressure: 29.97"   Gusts: NA
Location:  37.49°N, 5.98°W
Report Text: LEZL 242030Z 03003KT 340V060 CAVOK 21/11 Q1015 NOSIG
Loading
Personal Weather Stations






























Interactive Weather Map
Tropical Storm Tracking
New forecast layout! Learn more

10-Day Weather Forecast

Advertisements
Track Severe Weather on mobile